sensor_id;sensor_type;location;lat;lon;timestamp;P1;durP1;ratioP1;P2;durP2;ratioP2
40611;SDS011;26317;44.894;20.286;2023-03-01T00:01:54;81.10;;;50.42;;
40611;SDS011;26317;44.894;20.286;2023-03-01T00:04:45;76.38;;;50.05;;
40611;SDS011;26317;44.894;20.286;2023-03-01T00:07:33;73.97;;;50.28;;
40611;SDS011;26317;44.894;20.286;2023-03-01T00:10:06;77.20;;;50.35;;
40611;SDS011;26317;44.894;20.286;2023-03-01T00:12:40;73.15;;;50.08;;
40611;SDS011;26317;44.894;20.286;2023-03-01T00:15:25;70.47;;;48.55;;
40611;SDS011;26317;44.894;20.286;2023-03-01T00:18:09;78.05;;;53.25;;
40611;SDS011;26317;44.894;20.286;2023-03-01T00:20:53;77.63;;;52.20;;
40611;SDS011;26317;44.894;20.286;2023-03-01T00:23:29;78.50;;;51.75;;
40611;SDS011;26317;44.894;20.286;2023-03-01T00:26:06;73.45;;;51.40;;
40611;SDS011;26317;44.894;20.286;2023-03-01T00:28:57;89.13;;;58.00;;
40611;SDS011;26317;44.894;20.286;2023-03-01T00:31:34;78.13;;;54.25;;
40611;SDS011;26317;44.894;20.286;2023-03-01T00:36:53;83.75;;;55.92;;
40611;SDS011;26317;44.894;20.286;2023-03-01T00:39:37;88.68;;;57.97;;
40611;SDS011;26317;44.894;20.286;2023-03-01T00:42:16;92.07;;;59.92;;
40611;SDS011;26317;44.894;20.286;2023-03-01T00:45:03;84.15;;;59.05;;
40611;SDS011;26317;44.894;20.286;2023-03-01T00:47:36;91.63;;;61.65;;
40611;SDS011;26317;44.894;20.286;2023-03-01T00:50:23;92.78;;;60.97;;
40611;SDS011;26317;44.894;20.286;2023-03-01T00:53:04;79.53;;;58.75;;
40611;SDS011;26317;44.894;20.286;2023-03-01T00:55:39;88.78;;;62.40;;
40611;SDS011;26317;44.894;20.286;2023-03-01T00:58:14;90.90;;;63.33;;
40611;SDS011;26317;44.894;20.286;2023-03-01T01:01:09;94.38;;;65.45;;
40611;SDS011;26317;44.894;20.286;2023-03-01T01:03:58;92.43;;;64.78;;
40611;SDS011;26317;44.894;20.286;2023-03-01T01:06:34;88.88;;;64.40;;
40611;SDS011;26317;44.894;20.286;2023-03-01T01:09:09;86.40;;;61.97;;
40611;SDS011;26317;44.894;20.286;2023-03-01T01:11:58;81.85;;;61.47;;
40611;SDS011;26317;44.894;20.286;2023-03-01T01:14:36;83.38;;;60.30;;
40611;SDS011;26317;44.894;20.286;2023-03-01T01:17:25;89.00;;;62.53;;
40611;SDS011;26317;44.894;20.286;2023-03-01T01:20:06;86.68;;;60.65;;
40611;SDS011;26317;44.894;20.286;2023-03-01T01:22:47;82.30;;;61.38;;
40611;SDS011;26317;44.894;20.286;2023-03-01T01:25:18;76.10;;;59.58;;
40611;SDS011;26317;44.894;20.286;2023-03-01T01:27:58;79.53;;;59.10;;
40611;SDS011;26317;44.894;20.286;2023-03-01T01:30:31;81.90;;;59.20;;
40611;SDS011;26317;44.894;20.286;2023-03-01T01:33:28;73.10;;;54.95;;
40611;SDS011;26317;44.894;20.286;2023-03-01T01:36:10;69.38;;;55.65;;
40611;SDS011;26317;44.894;20.286;2023-03-01T01:38:46;75.90;;;55.45;;
40611;SDS011;26317;44.894;20.286;2023-03-01T01:41:25;66.13;;;53.92;;
40611;SDS011;26317;44.894;20.286;2023-03-01T01:44:11;70.25;;;55.08;;
40611;SDS011;26317;44.894;20.286;2023-03-01T01:47:03;71.50;;;53.63;;
40611;SDS011;26317;44.894;20.286;2023-03-01T01:49:46;64.60;;;52.38;;
40611;SDS011;26317;44.894;20.286;2023-03-01T01:52:26;63.75;;;50.97;;
40611;SDS011;26317;44.894;20.286;2023-03-01T01:55:10;63.55;;;49.60;;
40611;SDS011;26317;44.894;20.286;2023-03-01T01:57:50;66.28;;;52.05;;
40611;SDS011;26317;44.894;20.286;2023-03-01T02:00:31;64.93;;;51.67;;
40611;SDS011;26317;44.894;20.286;2023-03-01T02:03:10;61.45;;;50.50;;
40611;SDS011;26317;44.894;20.286;2023-03-01T02:05:58;58.85;;;50.20;;
40611;SDS011;26317;44.894;20.286;2023-03-01T02:08:46;54.58;;;47.10;;
40611;SDS011;26317;44.894;20.286;2023-03-01T02:11:27;58.50;;;49.92;;
40611;SDS011;26317;44.894;20.286;2023-03-01T02:14:09;56.50;;;48.83;;
40611;SDS011;26317;44.894;20.286;2023-03-01T02:16:49;58.38;;;48.45;;
40611;SDS011;26317;44.894;20.286;2023-03-01T02:19:31;53.22;;;47.13;;
40611;SDS011;26317;44.894;20.286;2023-03-01T02:22:36;58.83;;;48.47;;
40611;SDS011;26317;44.894;20.286;2023-03-01T02:25:39;60.13;;;49.63;;
40611;SDS011;26317;44.894;20.286;2023-03-01T02:28:36;55.58;;;46.88;;
40611;SDS011;26317;44.894;20.286;2023-03-01T02:31:29;55.97;;;47.28;;
40611;SDS011;26317;44.894;20.286;2023-03-01T02:34:32;57.22;;;47.42;;
40611;SDS011;26317;44.894;20.286;2023-03-01T02:37:08;56.80;;;47.15;;
40611;SDS011;26317;44.894;20.286;2023-03-01T02:39:58;57.40;;;49.63;;
40611;SDS011;26317;44.894;20.286;2023-03-01T02:42:43;56.05;;;47.95;;
40611;SDS011;26317;44.894;20.286;2023-03-01T02:45:31;57.38;;;50.33;;
40611;SDS011;26317;44.894;20.286;2023-03-01T02:48:18;58.95;;;49.42;;
40611;SDS011;26317;44.894;20.286;2023-03-01T02:50:57;61.30;;;51.38;;
40611;SDS011;26317;44.894;20.286;2023-03-01T02:53:45;58.45;;;49.28;;
40611;SDS011;26317;44.894;20.286;2023-03-01T02:56:30;59.45;;;48.72;;
40611;SDS011;26317;44.894;20.286;2023-03-01T02:59:07;60.03;;;48.90;;
40611;SDS011;26317;44.894;20.286;2023-03-01T03:01:53;58.60;;;50.45;;
40611;SDS011;26317;44.894;20.286;2023-03-01T03:04:34;57.80;;;50.03;;
40611;SDS011;26317;44.894;20.286;2023-03-01T03:07:07;57.47;;;49.22;;
40611;SDS011;26317;44.894;20.286;2023-03-01T03:09:52;64.55;;;51.58;;
40611;SDS011;26317;44.894;20.286;2023-03-01T03:12:33;64.32;;;50.90;;
40611;SDS011;26317;44.894;20.286;2023-03-01T03:15:11;62.15;;;52.60;;
40611;SDS011;26317;44.894;20.286;2023-03-01T03:17:51;63.50;;;51.45;;
40611;SDS011;26317;44.894;20.286;2023-03-01T03:20:31;65.32;;;51.88;;
40611;SDS011;26317;44.894;20.286;2023-03-01T03:23:07;63.13;;;52.72;;
40611;SDS011;26317;44.894;20.286;2023-03-01T03:26:05;66.32;;;55.45;;
40611;SDS011;26317;44.894;20.286;2023-03-01T03:28:41;65.20;;;55.30;;
40611;SDS011;26317;44.894;20.286;2023-03-01T03:31:26;62.45;;;53.28;;
40611;SDS011;26317;44.894;20.286;2023-03-01T03:34:05;65.78;;;53.65;;
40611;SDS011;26317;44.894;20.286;2023-03-01T03:36:55;61.42;;;50.22;;
40611;SDS011;26317;44.894;20.286;2023-03-01T03:39:28;63.65;;;52.38;;
40611;SDS011;26317;44.894;20.286;2023-03-01T03:42:16;59.00;;;49.72;;
40611;SDS011;26317;44.894;20.286;2023-03-01T03:45:00;60.00;;;51.53;;
40611;SDS011;26317;44.894;20.286;2023-03-01T03:47:51;61.45;;;52.00;;
40611;SDS011;26317;44.894;20.286;2023-03-01T03:50:38;72.32;;;57.45;;
40611;SDS011;26317;44.894;20.286;2023-03-01T03:53:14;70.18;;;54.92;;
40611;SDS011;26317;44.894;20.286;2023-03-01T03:55:51;63.33;;;51.95;;
40611;SDS011;26317;44.894;20.286;2023-03-01T03:58:34;61.08;;;50.83;;
40611;SDS011;26317;44.894;20.286;2023-03-01T04:01:11;57.83;;;50.75;;
40611;SDS011;26317;44.894;20.286;2023-03-01T04:03:44;60.60;;;49.42;;
40611;SDS011;26317;44.894;20.286;2023-03-01T04:06:18;58.05;;;49.85;;
40611;SDS011;26317;44.894;20.286;2023-03-01T04:09:01;56.90;;;48.03;;
40611;SDS011;26317;44.894;20.286;2023-03-01T04:11:36;57.00;;;49.72;;
40611;SDS011;26317;44.894;20.286;2023-03-01T04:14:10;56.33;;;47.60;;
40611;SDS011;26317;44.894;20.286;2023-03-01T04:16:42;58.45;;;47.95;;
40611;SDS011;26317;44.894;20.286;2023-03-01T04:19:16;56.15;;;47.63;;
40611;SDS011;26317;44.894;20.286;2023-03-01T04:22:07;57.65;;;49.30;;
40611;SDS011;26317;44.894;20.286;2023-03-01T04:24:50;59.08;;;51.05;;
40611;SDS011;26317;44.894;20.286;2023-03-01T04:27:24;58.60;;;50.17;;
40611;SDS011;26317;44.894;20.286;2023-03-01T04:30:00;58.63;;;50.63;;
40611;SDS011;26317;44.894;20.286;2023-03-01T04:32:59;56.45;;;49.00;;
40611;SDS011;26317;44.894;20.286;2023-03-01T04:35:38;55.42;;;48.47;;
40611;SDS011;26317;44.894;20.286;2023-03-01T04:38:22;61.30;;;51.83;;
40611;SDS011;26317;44.894;20.286;2023-03-01T04:41:10;63.55;;;53.20;;
40611;SDS011;26317;44.894;20.286;2023-03-01T04:43:45;58.30;;;49.58;;
40611;SDS011;26317;44.894;20.286;2023-03-01T04:46:30;60.63;;;50.83;;
40611;SDS011;26317;44.894;20.286;2023-03-01T04:49:00;59.85;;;51.28;;
40611;SDS011;26317;44.894;20.286;2023-03-01T04:51:39;58.40;;;49.75;;
40611;SDS011;26317;44.894;20.286;2023-03-01T04:54:32;58.30;;;48.80;;
40611;SDS011;26317;44.894;20.286;2023-03-01T04:57:15;57.42;;;46.65;;
40611;SDS011;26317;44.894;20.286;2023-03-01T04:59:49;57.38;;;47.28;;
40611;SDS011;26317;44.894;20.286;2023-03-01T05:02:26;58.60;;;48.05;;
40611;SDS011;26317;44.894;20.286;2023-03-01T05:05:03;52.75;;;45.75;;
40611;SDS011;26317;44.894;20.286;2023-03-01T05:07:36;54.22;;;47.40;;
40611;SDS011;26317;44.894;20.286;2023-03-01T05:10:30;54.83;;;47.25;;
40611;SDS011;26317;44.894;20.286;2023-03-01T05:13:08;59.17;;;47.65;;
40611;SDS011;26317;44.894;20.286;2023-03-01T05:15:48;56.92;;;48.05;;
40611;SDS011;26317;44.894;20.286;2023-03-01T05:21:10;51.45;;;45.13;;
40611;SDS011;26317;44.894;20.286;2023-03-01T05:23:50;50.38;;;44.53;;
40611;SDS011;26317;44.894;20.286;2023-03-01T05:26:39;51.33;;;45.38;;
40611;SDS011;26317;44.894;20.286;2023-03-01T05:29:22;51.97;;;43.10;;
40611;SDS011;26317;44.894;20.286;2023-03-01T05:32:00;49.88;;;44.15;;
40611;SDS011;26317;44.894;20.286;2023-03-01T05:34:45;50.78;;;43.05;;
40611;SDS011;26317;44.894;20.286;2023-03-01T05:40:18;54.47;;;46.25;;
40611;SDS011;26317;44.894;20.286;2023-03-01T05:43:00;57.55;;;45.10;;
40611;SDS011;26317;44.894;20.286;2023-03-01T05:45:37;55.38;;;45.90;;
40611;SDS011;26317;44.894;20.286;2023-03-01T05:48:14;51.05;;;44.80;;
40611;SDS011;26317;44.894;20.286;2023-03-01T05:50:50;51.20;;;43.47;;
40611;SDS011;26317;44.894;20.286;2023-03-01T05:53:35;49.72;;;44.30;;
40611;SDS011;26317;44.894;20.286;2023-03-01T05:56:17;49.25;;;43.13;;
40611;SDS011;26317;44.894;20.286;2023-03-01T05:58:53;49.50;;;43.20;;
40611;SDS011;26317;44.894;20.286;2023-03-01T06:01:29;56.25;;;45.60;;
40611;SDS011;26317;44.894;20.286;2023-03-01T06:04:02;53.95;;;45.53;;
40611;SDS011;26317;44.894;20.286;2023-03-01T06:06:42;52.00;;;46.30;;
40611;SDS011;26317;44.894;20.286;2023-03-01T06:09:16;54.17;;;46.28;;
40611;SDS011;26317;44.894;20.286;2023-03-01T06:12:00;58.03;;;46.53;;
40611;SDS011;26317;44.894;20.286;2023-03-01T06:14:49;51.78;;;44.65;;
40611;SDS011;26317;44.894;20.286;2023-03-01T06:17:25;52.65;;;44.38;;
40611;SDS011;26317;44.894;20.286;2023-03-01T06:20:12;47.90;;;42.70;;
40611;SDS011;26317;44.894;20.286;2023-03-01T06:22:50;50.28;;;42.72;;
40611;SDS011;26317;44.894;20.286;2023-03-01T06:25:24;51.05;;;44.95;;
40611;SDS011;26317;44.894;20.286;2023-03-01T06:28:01;50.53;;;44.03;;
40611;SDS011;26317;44.894;20.286;2023-03-01T06:30:47;52.83;;;43.47;;
40611;SDS011;26317;44.894;20.286;2023-03-01T06:33:22;48.05;;;42.70;;
40611;SDS011;26317;44.894;20.286;2023-03-01T06:36:01;48.03;;;41.88;;
40611;SDS011;26317;44.894;20.286;2023-03-01T06:38:35;46.00;;;40.25;;
40611;SDS011;26317;44.894;20.286;2023-03-01T06:41:14;45.83;;;39.83;;
40611;SDS011;26317;44.894;20.286;2023-03-01T06:43:57;50.28;;;42.70;;
40611;SDS011;26317;44.894;20.286;2023-03-01T06:46:43;50.00;;;42.33;;
40611;SDS011;26317;44.894;20.286;2023-03-01T06:49:20;50.75;;;42.20;;
40611;SDS011;26317;44.894;20.286;2023-03-01T06:52:01;51.13;;;40.67;;
40611;SDS011;26317;44.894;20.286;2023-03-01T06:54:43;48.45;;;41.97;;
40611;SDS011;26317;44.894;20.286;2023-03-01T06:57:15;47.00;;;41.50;;
40611;SDS011;26317;44.894;20.286;2023-03-01T06:59:55;51.58;;;42.15;;
40611;SDS011;26317;44.894;20.286;2023-03-01T07:02:34;56.03;;;49.22;;
40611;SDS011;26317;44.894;20.286;2023-03-01T07:05:13;51.05;;;45.00;;
40611;SDS011;26317;44.894;20.286;2023-03-01T07:07:54;51.65;;;45.33;;
40611;SDS011;26317;44.894;20.286;2023-03-01T07:10:40;48.17;;;40.83;;
40611;SDS011;26317;44.894;20.286;2023-03-01T07:13:19;48.20;;;41.40;;
40611;SDS011;26317;44.894;20.286;2023-03-01T07:15:57;47.88;;;41.05;;
40611;SDS011;26317;44.894;20.286;2023-03-01T07:18:57;47.70;;;40.88;;
40611;SDS011;26317;44.894;20.286;2023-03-01T07:21:40;49.17;;;40.05;;
40611;SDS011;26317;44.894;20.286;2023-03-01T07:24:20;47.90;;;40.58;;
40611;SDS011;26317;44.894;20.286;2023-03-01T07:27:06;49.80;;;39.60;;
40611;SDS011;26317;44.894;20.286;2023-03-01T07:29:49;42.28;;;36.58;;
40611;SDS011;26317;44.894;20.286;2023-03-01T07:32:25;39.92;;;34.10;;
40611;SDS011;26317;44.894;20.286;2023-03-01T07:35:05;38.05;;;33.80;;
40611;SDS011;26317;44.894;20.286;2023-03-01T07:37:51;38.70;;;34.60;;
40611;SDS011;26317;44.894;20.286;2023-03-01T07:40:37;41.60;;;34.60;;
40611;SDS011;26317;44.894;20.286;2023-03-01T07:43:13;39.22;;;33.65;;
40611;SDS011;26317;44.894;20.286;2023-03-01T07:45:57;38.80;;;34.58;;
40611;SDS011;26317;44.894;20.286;2023-03-01T07:48:40;40.25;;;35.83;;
40611;SDS011;26317;44.894;20.286;2023-03-01T07:51:26;153.63;;;119.85;;
40611;SDS011;26317;44.894;20.286;2023-03-01T07:54:23;40.47;;;36.15;;
40611;SDS011;26317;44.894;20.286;2023-03-01T07:56:58;39.00;;;34.38;;
40611;SDS011;26317;44.894;20.286;2023-03-01T07:59:43;37.97;;;31.23;;
40611;SDS011;26317;44.894;20.286;2023-03-01T08:02:35;33.80;;;30.02;;
40611;SDS011;26317;44.894;20.286;2023-03-01T08:05:14;37.47;;;31.75;;
40611;SDS011;26317;44.894;20.286;2023-03-01T08:07:55;40.00;;;31.75;;
40611;SDS011;26317;44.894;20.286;2023-03-01T08:10:33;41.65;;;33.13;;
40611;SDS011;26317;44.894;20.286;2023-03-01T08:13:07;39.15;;;33.15;;
40611;SDS011;26317;44.894;20.286;2023-03-01T08:15:49;42.70;;;33.80;;
40611;SDS011;26317;44.894;20.286;2023-03-01T08:18:28;39.80;;;33.30;;
40611;SDS011;26317;44.894;20.286;2023-03-01T08:21:05;42.55;;;33.67;;
40611;SDS011;26317;44.894;20.286;2023-03-01T08:23:50;39.10;;;31.63;;
40611;SDS011;26317;44.894;20.286;2023-03-01T08:26:33;40.40;;;32.33;;
40611;SDS011;26317;44.894;20.286;2023-03-01T08:29:06;36.70;;;30.83;;
40611;SDS011;26317;44.894;20.286;2023-03-01T08:31:41;35.55;;;28.08;;
40611;SDS011;26317;44.894;20.286;2023-03-01T08:34:19;29.73;;;25.27;;
40611;SDS011;26317;44.894;20.286;2023-03-01T08:36:55;20.17;;;17.98;;
40611;SDS011;26317;44.894;20.286;2023-03-01T08:39:42;23.27;;;17.88;;
40611;SDS011;26317;44.894;20.286;2023-03-01T08:42:16;17.17;;;15.38;;
40611;SDS011;26317;44.894;20.286;2023-03-01T08:44:57;13.50;;;12.10;;
40611;SDS011;26317;44.894;20.286;2023-03-01T08:47:32;15.73;;;12.10;;
40611;SDS011;26317;44.894;20.286;2023-03-01T08:50:16;16.85;;;11.38;;
40611;SDS011;26317;44.894;20.286;2023-03-01T08:52:55;13.88;;;11.18;;
40611;SDS011;26317;44.894;20.286;2023-03-01T08:55:37;11.98;;;10.48;;
40611;SDS011;26317;44.894;20.286;2023-03-01T08:58:12;12.00;;;10.70;;
40611;SDS011;26317;44.894;20.286;2023-03-01T09:00:52;12.55;;;9.68;;
40611;SDS011;26317;44.894;20.286;2023-03-01T09:03:40;10.35;;;8.35;;
40611;SDS011;26317;44.894;20.286;2023-03-01T09:06:35;8.20;;;7.30;;
40611;SDS011;26317;44.894;20.286;2023-03-01T09:09:20;8.70;;;7.82;;
40611;SDS011;26317;44.894;20.286;2023-03-01T09:12:00;7.97;;;7.18;;
40611;SDS011;26317;44.894;20.286;2023-03-01T09:14:34;6.90;;;6.20;;
40611;SDS011;26317;44.894;20.286;2023-03-01T09:17:11;7.63;;;6.47;;
40611;SDS011;26317;44.894;20.286;2023-03-01T09:19:53;6.68;;;6.07;;
40611;SDS011;26317;44.894;20.286;2023-03-01T09:22:37;7.47;;;6.43;;
40611;SDS011;26317;44.894;20.286;2023-03-01T09:25:17;6.95;;;6.00;;
40611;SDS011;26317;44.894;20.286;2023-03-01T09:27:57;6.68;;;5.97;;
40611;SDS011;26317;44.894;20.286;2023-03-01T09:30:33;7.45;;;6.47;;
40611;SDS011;26317;44.894;20.286;2023-03-01T09:33:07;8.23;;;6.18;;
40611;SDS011;26317;44.894;20.286;2023-03-01T09:35:55;6.40;;;5.45;;
40611;SDS011;26317;44.894;20.286;2023-03-01T09:38:35;5.70;;;5.10;;
40611;SDS011;26317;44.894;20.286;2023-03-01T09:41:18;5.55;;;5.03;;
40611;SDS011;26317;44.894;20.286;2023-03-01T09:44:40;7.50;;;6.15;;
40611;SDS011;26317;44.894;20.286;2023-03-01T09:47:29;7.00;;;5.82;;
40611;SDS011;26317;44.894;20.286;2023-03-01T09:50:16;7.40;;;6.15;;
40611;SDS011;26317;44.894;20.286;2023-03-01T09:52:59;7.63;;;6.65;;
40611;SDS011;26317;44.894;20.286;2023-03-01T09:55:37;8.38;;;7.15;;
40611;SDS011;26317;44.894;20.286;2023-03-01T09:58:34;9.10;;;7.15;;
40611;SDS011;26317;44.894;20.286;2023-03-01T10:01:38;8.50;;;7.07;;
40611;SDS011;26317;44.894;20.286;2023-03-01T10:04:34;12.20;;;10.10;;
40611;SDS011;26317;44.894;20.286;2023-03-01T10:07:30;14.13;;;11.10;;
40611;SDS011;26317;44.894;20.286;2023-03-01T10:10:21;11.35;;;8.07;;
40611;SDS011;26317;44.894;20.286;2023-03-01T10:13:12;8.65;;;7.22;;
40611;SDS011;26317;44.894;20.286;2023-03-01T10:15:54;11.77;;;8.23;;
40611;SDS011;26317;44.894;20.286;2023-03-01T10:18:38;8.55;;;7.47;;
40611;SDS011;26317;44.894;20.286;2023-03-01T10:21:25;7.65;;;6.82;;
40611;SDS011;26317;44.894;20.286;2023-03-01T10:24:08;10.65;;;8.10;;
40611;SDS011;26317;44.894;20.286;2023-03-01T10:26:58;14.27;;;10.45;;
40611;SDS011;26317;44.894;20.286;2023-03-01T10:29:48;13.88;;;9.55;;
40611;SDS011;26317;44.894;20.286;2023-03-01T10:32:28;9.60;;;8.25;;
40611;SDS011;26317;44.894;20.286;2023-03-01T10:35:22;10.15;;;8.43;;
40611;SDS011;26317;44.894;20.286;2023-03-01T10:38:03;13.65;;;8.55;;
40611;SDS011;26317;44.894;20.286;2023-03-01T10:40:51;15.15;;;11.52;;
40611;SDS011;26317;44.894;20.286;2023-03-01T10:43:43;10.93;;;8.48;;
40611;SDS011;26317;44.894;20.286;2023-03-01T10:46:31;14.95;;;9.30;;
40611;SDS011;26317;44.894;20.286;2023-03-01T10:49:14;20.55;;;15.75;;
40611;SDS011;26317;44.894;20.286;2023-03-01T10:51:55;13.35;;;9.15;;
40611;SDS011;26317;44.894;20.286;2023-03-01T10:54:55;10.30;;;7.57;;
40611;SDS011;26317;44.894;20.286;2023-03-01T10:57:37;10.55;;;7.65;;
40611;SDS011;26317;44.894;20.286;2023-03-01T11:00:23;16.02;;;7.85;;
40611;SDS011;26317;44.894;20.286;2023-03-01T11:03:12;7.70;;;6.05;;
40611;SDS011;26317;44.894;20.286;2023-03-01T11:05:55;8.95;;;6.30;;
40611;SDS011;26317;44.894;20.286;2023-03-01T11:08:41;8.85;;;5.85;;
40611;SDS011;26317;44.894;20.286;2023-03-01T11:11:20;9.13;;;5.78;;
40611;SDS011;26317;44.894;20.286;2023-03-01T11:14:19;7.20;;;5.43;;
40611;SDS011;26317;44.894;20.286;2023-03-01T11:17:03;7.93;;;4.88;;
40611;SDS011;26317;44.894;20.286;2023-03-01T11:20:02;9.15;;;5.07;;
40611;SDS011;26317;44.894;20.286;2023-03-01T11:23:13;10.57;;;4.30;;
40611;SDS011;26317;44.894;20.286;2023-03-01T11:25:53;5.40;;;4.90;;
40611;SDS011;26317;44.894;20.286;2023-03-01T11:28:39;6.22;;;4.55;;
40611;SDS011;26317;44.894;20.286;2023-03-01T11:31:20;6.43;;;4.45;;
40611;SDS011;26317;44.894;20.286;2023-03-01T11:34:02;6.23;;;3.53;;
40611;SDS011;26317;44.894;20.286;2023-03-01T11:36:44;7.28;;;3.80;;
40611;SDS011;26317;44.894;20.286;2023-03-01T11:39:34;8.65;;;3.05;;
40611;SDS011;26317;44.894;20.286;2023-03-01T11:42:20;6.07;;;3.63;;
40611;SDS011;26317;44.894;20.286;2023-03-01T11:45:10;7.10;;;3.67;;
40611;SDS011;26317;44.894;20.286;2023-03-01T11:47:55;8.38;;;4.22;;
40611;SDS011;26317;44.894;20.286;2023-03-01T11:50:41;5.80;;;4.10;;
40611;SDS011;26317;44.894;20.286;2023-03-01T11:53:35;14.02;;;8.10;;
40611;SDS011;26317;44.894;20.286;2023-03-01T11:57:02;8.70;;;6.07;;
40611;SDS011;26317;44.894;20.286;2023-03-01T12:00:21;8.07;;;4.00;;
40611;SDS011;26317;44.894;20.286;2023-03-01T12:09:38;5.28;;;4.20;;
40611;SDS011;26317;44.894;20.286;2023-03-01T12:12:48;9.18;;;4.78;;
40611;SDS011;26317;44.894;20.286;2023-03-01T12:15:49;7.72;;;5.25;;
40611;SDS011;26317;44.894;20.286;2023-03-01T12:18:56;8.82;;;5.13;;
40611;SDS011;26317;44.894;20.286;2023-03-01T12:21:52;9.95;;;5.20;;
40611;SDS011;26317;44.894;20.286;2023-03-01T12:25:07;11.45;;;4.25;;
40611;SDS011;26317;44.894;20.286;2023-03-01T12:40:54;7.85;;;6.00;;
40611;SDS011;26317;44.894;20.286;2023-03-01T12:44:05;6.53;;;4.47;;
40611;SDS011;26317;44.894;20.286;2023-03-01T12:47:11;7.60;;;4.30;;
40611;SDS011;26317;44.894;20.286;2023-03-01T12:50:00;7.10;;;4.72;;
40611;SDS011;26317;44.894;20.286;2023-03-01T12:52:48;5.30;;;4.10;;
40611;SDS011;26317;44.894;20.286;2023-03-01T12:55:41;8.85;;;4.78;;
40611;SDS011;26317;44.894;20.286;2023-03-01T12:58:50;8.90;;;5.35;;
40611;SDS011;26317;44.894;20.286;2023-03-01T13:01:39;8.70;;;5.50;;
40611;SDS011;26317;44.894;20.286;2023-03-01T13:07:38;7.07;;;4.57;;
40611;SDS011;26317;44.894;20.286;2023-03-01T13:10:33;8.55;;;5.05;;
40611;SDS011;26317;44.894;20.286;2023-03-01T13:13:26;7.15;;;4.97;;
40611;SDS011;26317;44.894;20.286;2023-03-01T13:19:23;7.95;;;4.82;;
40611;SDS011;26317;44.894;20.286;2023-03-01T13:21:56;28.88;;;20.05;;
40611;SDS011;26317;44.894;20.286;2023-03-01T13:24:33;9.25;;;6.20;;
40611;SDS011;26317;44.894;20.286;2023-03-01T13:27:27;7.95;;;5.32;;
40611;SDS011;26317;44.894;20.286;2023-03-01T13:30:11;7.88;;;5.72;;
40611;SDS011;26317;44.894;20.286;2023-03-01T13:39:28;10.18;;;4.70;;
40611;SDS011;26317;44.894;20.286;2023-03-01T13:45:37;5.50;;;4.30;;
40611;SDS011;26317;44.894;20.286;2023-03-01T13:48:21;4.97;;;4.25;;
40611;SDS011;26317;44.894;20.286;2023-03-01T13:50:58;9.98;;;4.60;;
40611;SDS011;26317;44.894;20.286;2023-03-01T13:53:38;6.97;;;4.68;;
40611;SDS011;26317;44.894;20.286;2023-03-01T13:56:26;5.80;;;4.07;;
40611;SDS011;26317;44.894;20.286;2023-03-01T14:02:19;7.47;;;5.03;;
40611;SDS011;26317;44.894;20.286;2023-03-01T14:04:58;8.30;;;4.18;;
40611;SDS011;26317;44.894;20.286;2023-03-01T14:07:34;6.00;;;4.13;;
40611;SDS011;26317;44.894;20.286;2023-03-01T14:10:26;8.07;;;4.72;;
40611;SDS011;26317;44.894;20.286;2023-03-01T14:13:34;9.40;;;3.97;;
40611;SDS011;26317;44.894;20.286;2023-03-01T14:16:27;6.68;;;4.57;;
40611;SDS011;26317;44.894;20.286;2023-03-01T14:19:16;8.13;;;4.55;;
40611;SDS011;26317;44.894;20.286;2023-03-01T14:22:11;6.55;;;4.65;;
40611;SDS011;26317;44.894;20.286;2023-03-01T14:24:54;6.15;;;4.53;;
40611;SDS011;26317;44.894;20.286;2023-03-01T14:27:33;7.38;;;4.85;;
40611;SDS011;26317;44.894;20.286;2023-03-01T14:30:18;7.22;;;5.22;;
40611;SDS011;26317;44.894;20.286;2023-03-01T14:33:17;7.00;;;5.68;;
40611;SDS011;26317;44.894;20.286;2023-03-01T14:36:25;8.23;;;6.00;;
40611;SDS011;26317;44.894;20.286;2023-03-01T14:39:00;6.80;;;6.10;;
40611;SDS011;26317;44.894;20.286;2023-03-01T14:41:43;7.75;;;5.50;;
40611;SDS011;26317;44.894;20.286;2023-03-01T14:44:23;10.07;;;5.65;;
40611;SDS011;26317;44.894;20.286;2023-03-01T14:47:04;7.57;;;5.47;;
40611;SDS011;26317;44.894;20.286;2023-03-01T14:49:53;7.55;;;5.63;;
40611;SDS011;26317;44.894;20.286;2023-03-01T14:52:38;9.75;;;6.68;;
40611;SDS011;26317;44.894;20.286;2023-03-01T14:55:15;7.85;;;6.53;;
40611;SDS011;26317;44.894;20.286;2023-03-01T14:57:50;8.13;;;6.57;;
40611;SDS011;26317;44.894;20.286;2023-03-01T15:00:30;8.88;;;6.57;;
40611;SDS011;26317;44.894;20.286;2023-03-01T15:03:08;9.77;;;6.93;;
40611;SDS011;26317;44.894;20.286;2023-03-01T15:06:00;10.70;;;7.28;;
40611;SDS011;26317;44.894;20.286;2023-03-01T15:08:47;8.73;;;6.75;;
40611;SDS011;26317;44.894;20.286;2023-03-01T15:11:24;12.35;;;7.47;;
40611;SDS011;26317;44.894;20.286;2023-03-01T15:17:20;12.75;;;7.85;;
40611;SDS011;26317;44.894;20.286;2023-03-01T15:20:07;9.57;;;7.95;;
40611;SDS011;26317;44.894;20.286;2023-03-01T15:22:56;10.13;;;8.13;;
40611;SDS011;26317;44.894;20.286;2023-03-01T15:25:43;13.57;;;9.10;;
40611;SDS011;26317;44.894;20.286;2023-03-01T15:28:37;12.02;;;9.35;;
40611;SDS011;26317;44.894;20.286;2023-03-01T15:31:20;15.45;;;8.82;;
40611;SDS011;26317;44.894;20.286;2023-03-01T15:37:32;12.68;;;9.05;;
40611;SDS011;26317;44.894;20.286;2023-03-01T15:40:25;10.98;;;9.57;;
40611;SDS011;26317;44.894;20.286;2023-03-01T15:43:36;11.63;;;8.68;;
40611;SDS011;26317;44.894;20.286;2023-03-01T15:46:26;13.63;;;9.23;;
40611;SDS011;26317;44.894;20.286;2023-03-01T15:49:40;12.50;;;9.23;;
40611;SDS011;26317;44.894;20.286;2023-03-01T15:52:32;15.05;;;10.05;;
40611;SDS011;26317;44.894;20.286;2023-03-01T15:55:23;12.45;;;9.50;;
40611;SDS011;26317;44.894;20.286;2023-03-01T15:58:03;13.05;;;10.52;;
40611;SDS011;26317;44.894;20.286;2023-03-01T16:00:50;12.70;;;9.95;;
40611;SDS011;26317;44.894;20.286;2023-03-01T16:03:36;15.07;;;10.93;;
40611;SDS011;26317;44.894;20.286;2023-03-01T16:06:14;15.48;;;11.07;;
40611;SDS011;26317;44.894;20.286;2023-03-01T16:08:48;16.00;;;11.13;;
40611;SDS011;26317;44.894;20.286;2023-03-01T16:11:29;15.43;;;10.95;;
40611;SDS011;26317;44.894;20.286;2023-03-01T16:14:04;12.27;;;10.68;;
40611;SDS011;26317;44.894;20.286;2023-03-01T16:17:01;12.35;;;10.32;;
40611;SDS011;26317;44.894;20.286;2023-03-01T16:19:37;15.00;;;10.68;;
40611;SDS011;26317;44.894;20.286;2023-03-01T16:22:19;16.38;;;11.18;;
40611;SDS011;26317;44.894;20.286;2023-03-01T16:25:02;14.85;;;12.20;;
40611;SDS011;26317;44.894;20.286;2023-03-01T16:27:41;15.13;;;11.80;;
40611;SDS011;26317;44.894;20.286;2023-03-01T16:30:19;14.77;;;10.50;;
40611;SDS011;26317;44.894;20.286;2023-03-01T16:33:07;15.23;;;11.90;;
40611;SDS011;26317;44.894;20.286;2023-03-01T16:36:05;14.60;;;11.18;;
40611;SDS011;26317;44.894;20.286;2023-03-01T16:38:44;14.80;;;11.93;;
40611;SDS011;26317;44.894;20.286;2023-03-01T16:41:27;17.42;;;11.27;;
40611;SDS011;26317;44.894;20.286;2023-03-01T16:44:04;13.55;;;11.30;;
40611;SDS011;26317;44.894;20.286;2023-03-01T16:46:41;14.15;;;11.13;;
40611;SDS011;26317;44.894;20.286;2023-03-01T16:49:18;15.25;;;11.07;;